Time;durP1;ratioP1;P1;durP2;ratioP2;P2;SDS_P1;SDS_P2;PMS_P1;PMS_P2;Temp;Humidity;BMP_temperature;BMP_pressure;BME280_temperature;BME280_humidity;BME280_pressure;Samples;Min_cycle;Max_cycle;Signal;HPM_P1;HPM_P2
2023/09/19 00:00:01;;;;;;;3.70;1.10;;;;;;;16.68;100.00;99523.06;4996319;28;20101;-75
2023/09/19 00:02:26;;;;;;;5.63;1.30;;;;;;;16.81;100.00;99527.47;4998890;28;20448;-75
2023/09/19 00:04:53;;;;;;;5.55;1.60;;;;;;;16.68;100.00;99516.84;4985692;28;20034;-76
2023/09/19 00:07:19;;;;;;;3.20;1.63;;;;;;;16.82;100.00;99523.69;4998206;28;20417;-75
2023/09/19 00:09:44;;;;;;;1.90;1.30;;;;;;;16.70;100.00;99500.47;4996324;28;20049;-75
2023/09/19 00:12:10;;;;;;;3.77;1.37;;;;;;;16.81;100.00;99532.84;5000214;28;20050;-74
2023/09/19 00:14:38;;;;;;;3.57;1.67;;;;;;;16.75;100.00;99512.19;4995910;28;20026;-75
2023/09/19 00:17:09;;;;;;;4.55;1.67;;;;;;;16.79;100.00;99513.38;4995732;28;20117;-76
2023/09/19 00:19:35;;;;;;;4.40;1.60;;;;;;;16.72;100.00;99491.09;4997393;28;20176;-75
2023/09/19 00:22:01;;;;;;;4.20;1.33;;;;;;;16.83;100.00;99486.78;4988296;28;20238;-75
2023/09/19 00:24:27;;;;;;;2.83;1.45;;;;;;;16.88;100.00;99493.13;4997834;28;20025;-75
2023/09/19 00:26:54;;;;;;;2.97;1.80;;;;;;;16.85;100.00;99474.69;4994661;28;20120;-75
2023/09/19 00:29:19;;;;;;;;;;;;;;;16.95;100.00;99497.56;4998036;28;20590;-75
2023/09/19 00:31:45;;;;;;;;;;;;;;;17.00;100.00;99497.69;4995552;28;19913;-75
2023/09/19 00:34:10;;;;;;;4.03;1.47;;;;;;;16.97;100.00;99485.47;4994817;28;19925;-75
2023/09/19 00:36:39;;;;;;;3.63;1.65;;;;;;;16.99;100.00;99513.03;4999753;28;20057;-75
2023/09/19 00:39:05;;;;;;;5.35;1.90;;;;;;;16.95;100.00;99506.50;4994168;28;20022;-75
2023/09/19 00:41:31;;;;;;;4.90;1.80;;;;;;;16.99;100.00;99502.25;4995601;28;20038;-75
2023/09/19 00:43:57;;;;;;;3.95;1.85;;;;;;;17.00;100.00;99486.91;4993140;28;20258;-76
2023/09/19 00:46:22;;;;;;;3.80;1.90;;;;;;;16.99;100.00;99479.88;4996416;28;20084;-75
2023/09/19 00:48:49;;;;;;;5.50;1.80;;;;;;;17.02;100.00;99490.16;4980076;28;20060;-75
2023/09/19 00:51:19;;;;;;;4.60;1.67;;;;;;;17.01;100.00;99489.34;4995247;28;20041;-74
2023/09/19 00:53:46;;;;;;;4.97;2.35;;;;;;;17.00;100.00;99521.97;4993790;28;20604;-74
2023/09/19 00:56:12;;;;;;;5.57;1.88;;;;;;;17.08;100.00;99527.00;4994445;28;20036;-75
2023/09/19 00:58:38;;;;;;;3.28;1.73;;;;;;;17.07;100.00;99522.66;4992143;28;20029;-75
2023/09/19 01:01:06;;;;;;;4.93;1.60;;;;;;;17.01;100.00;99520.91;4993481;28;20036;-76
2023/09/19 01:03:34;;;;;;;5.53;1.88;;;;;;;16.97;100.00;99519.72;4996123;28;20030;-74
2023/09/19 01:06:03;;;;;;;3.38;1.63;;;;;;;16.93;100.00;99524.78;4992519;28;20045;-75
2023/09/19 01:08:29;;;;;;;4.05;1.95;;;;;;;16.92;100.00;99525.81;4996546;28;20041;-75
2023/09/19 01:11:10;;;;;;;;;;;;;;;16.92;100.00;99528.50;4999235;28;20080;-73
2023/09/19 01:13:48;;;;;;;3.10;1.58;;;;;;;16.87;100.00;99526.50;4992505;28;20365;-75
2023/09/19 01:16:39;;;;;;;4.45;1.88;;;;;;;16.70;100.00;99519.31;4993439;28;20054;-76
2023/09/19 01:19:23;;;;;;;3.38;1.63;;;;;;;16.90;100.00;99535.19;4991314;28;20433;-75
2023/09/19 01:22:08;;;;;;;5.65;2.30;;;;;;;16.75;100.00;99539.13;4997034;28;20053;-75
2023/09/19 01:24:46;;;;;;;8.18;2.25;;;;;;;16.72;100.00;99565.72;4990598;28;20394;-74
2023/09/19 01:27:47;;;;;;;6.45;2.63;;;;;;;16.82;100.00;99561.44;4993411;28;20180;-75
2023/09/19 01:30:22;;;;;;;6.88;2.30;;;;;;;16.83;100.00;99571.19;4997811;28;20053;-75
2023/09/19 01:32:52;;;;;;;6.22;2.08;;;;;;;16.78;100.00;99554.00;4983221;28;20053;-75
2023/09/19 01:35:18;;;;;;;7.57;2.20;;;;;;;16.77;100.00;99552.38;4987322;28;20481;-75
2023/09/19 01:37:44;;;;;;;5.32;2.13;;;;;;;16.80;100.00;99563.53;4992646;28;20125;-75
2023/09/19 01:40:17;;;;;;;10.95;2.50;;;;;;;16.71;100.00;99554.09;4993115;28;20109;-75
2023/09/19 01:42:49;;;;;;;4.78;2.10;;;;;;;16.80;100.00;99557.31;4989179;28;20034;-74
2023/09/19 01:45:33;;;;;;;6.93;2.50;;;;;;;16.77;100.00;99547.81;4994582;28;20038;-75
2023/09/19 01:48:22;;;;;;;8.10;2.08;;;;;;;16.72;100.00;99552.25;4989331;28;20425;-75
2023/09/19 01:50:58;;;;;;;3.33;1.85;;;;;;;16.59;100.00;99577.53;4986602;28;20409;-75
2023/09/19 01:53:30;;;;;;;4.78;1.83;;;;;;;16.56;100.00;99588.78;4991163;28;20033;-76
2023/09/19 01:55:57;;;;;;;8.00;2.05;;;;;;;16.60;100.00;99616.88;5002254;28;20034;-75
2023/09/19 01:58:42;;;;;;;5.55;1.73;;;;;;;16.46;100.00;99616.28;4987672;28;20022;-75
2023/09/19 02:01:12;;;;;;;7.15;2.30;;;;;;;16.46;100.00;99600.91;4991314;28;20034;-74
2023/09/19 02:03:39;;;;;;;9.02;2.70;;;;;;;16.44;100.00;99626.44;4992917;28;20037;-75
2023/09/19 02:06:05;;;;;;;6.13;2.25;;;;;;;16.43;100.00;99617.50;4984696;28;20584;-73
2023/09/19 02:08:33;;;;;;;10.85;2.80;;;;;;;16.26;100.00;99632.69;4990149;28;20034;-75
2023/09/19 02:10:59;;;;;;;11.88;2.20;;;;;;;16.31;100.00;99670.53;4991173;28;20486;-74
2023/09/19 02:13:25;;;;;;;6.10;1.95;;;;;;;16.25;100.00;99663.38;4994202;28;20032;-75
2023/09/19 02:15:51;;;;;;;7.72;2.00;;;;;;;16.19;100.00;99669.63;4980854;28;20034;-75
2023/09/19 02:18:16;;;;;;;4.87;2.37;;;;;;;16.20;100.00;99687.44;4987287;28;20053;-75
2023/09/19 02:20:42;;;;;;;8.05;3.67;;;;;;;16.19;100.00;99678.53;4984332;28;20072;-75
2023/09/19 02:23:09;;;;;;;5.72;2.75;;;;;;;16.25;100.00;99695.69;4991677;28;20022;-75
2023/09/19 02:25:39;;;;;;;7.30;2.45;;;;;;;16.33;100.00;99691.84;4989193;28;20034;-75
2023/09/19 02:28:05;;;;;;;10.77;3.22;;;;;;;16.32;100.00;99696.41;4995784;28;20030;-75
2023/09/19 02:30:30;;;;;;;;;;;;;;;16.34;100.00;99694.34;4998940;28;20069;-74
2023/09/19 02:32:56;;;;;;;6.43;2.22;;;;;;;16.19;100.00;99673.16;4994598;28;19945;-75
2023/09/19 02:35:22;;;;;;;13.55;2.70;;;;;;;16.18;100.00;99701.13;4991476;28;20152;-75
2023/09/19 02:37:48;;;;;;;10.35;2.42;;;;;;;16.18;100.00;99700.31;4975420;28;20026;-75
2023/09/19 02:40:20;;;;;;;7.85;3.05;;;;;;;16.15;100.00;99700.75;4991203;28;20121;-75
2023/09/19 02:42:52;;;;;;;7.85;3.03;;;;;;;16.22;100.00;99699.66;5003796;28;20068;-75
2023/09/19 02:45:18;;;;;;;5.90;2.20;;;;;;;16.17;100.00;99712.13;5005081;28;20129;-75
2023/09/19 02:47:44;;;;;;;6.55;2.95;;;;;;;16.02;100.00;99702.53;4999733;28;20022;-75
2023/09/19 02:50:11;;;;;;;6.75;2.75;;;;;;;16.03;100.00;99703.38;5004151;28;20042;-75
2023/09/19 02:52:36;;;;;;;;;;;;;;;16.06;100.00;99700.25;4997088;28;20492;-75
2023/09/19 02:55:04;;;;;;;9.52;2.38;;;;;;;15.94;100.00;99697.44;4999144;28;19909;-75
2023/09/19 02:57:31;;;;;;;6.53;2.28;;;;;;;15.80;100.00;99685.16;4991146;28;20059;-76
2023/09/19 02:59:56;;;;;;;7.90;2.40;;;;;;;15.86;100.00;99707.69;5009036;28;20030;-75
2023/09/19 03:02:24;;;;;;;7.38;2.47;;;;;;;15.85;100.00;99706.88;5008989;28;20492;-75
2023/09/19 03:04:51;;;;;;;7.88;2.50;;;;;;;15.77;100.00;99691.81;4998978;28;20096;-75
2023/09/19 03:07:17;;;;;;;9.38;2.30;;;;;;;15.81;100.00;99697.59;5007135;28;20034;-75
2023/09/19 03:09:43;;;;;;;10.35;2.47;;;;;;;15.82;100.00;99696.53;5005373;28;20492;-75
2023/09/19 03:12:08;;;;;;;6.60;3.15;;;;;;;15.74;100.00;99711.13;5004680;28;20026;-75
2023/09/19 03:14:35;;;;;;;7.00;2.33;;;;;;;15.73;100.00;99709.47;5007451;28;20026;-75
2023/09/19 03:17:04;;;;;;;6.10;2.63;;;;;;;15.76;100.00;99713.59;5004016;28;20034;-75
2023/09/19 03:19:30;;;;;;;9.32;2.33;;;;;;;15.63;100.00;99704.53;5014325;28;20030;-75
2023/09/19 03:21:57;;;;;;;9.05;2.30;;;;;;;15.66;100.00;99723.97;5001436;28;20113;-75
2023/09/19 03:24:23;;;;;;;6.75;2.70;;;;;;;15.68;100.00;99732.66;5004437;28;20048;-75
2023/09/19 03:26:49;;;;;;;5.82;2.53;;;;;;;15.66;100.00;99745.50;5008398;28;20029;-75
2023/09/19 03:29:15;;;;;;;7.78;3.45;;;;;;;15.57;100.00;99721.59;5007007;28;20022;-75
2023/09/19 03:31:41;;;;;;;7.35;2.53;;;;;;;15.61;100.00;99728.16;4994256;28;20548;-74
2023/09/19 03:34:07;;;;;;;7.35;2.08;;;;;;;15.69;100.00;99726.25;4993233;28;20077;-75
2023/09/19 03:36:35;;;;;;;6.90;2.47;;;;;;;15.56;100.00;99692.22;4979971;28;20042;-75
2023/09/19 03:39:01;;;;;;;4.93;1.90;;;;;;;15.64;100.00;99691.94;4994230;28;20524;-75
2023/09/19 03:41:27;;;;;;;6.50;2.05;;;;;;;15.57;100.00;99666.97;4995691;28;20022;-75
2023/09/19 03:43:52;;;;;;;4.40;2.00;;;;;;;15.60;100.00;99645.81;4986462;28;20041;-75
2023/09/19 03:46:18;;;;;;;5.47;2.10;;;;;;;15.54;100.00;99633.25;4992602;28;20061;-75
2023/09/19 03:48:43;;;;;;;5.25;1.88;;;;;;;15.45;100.00;99634.56;4989234;28;20025;-75
2023/09/19 03:51:10;;;;;;;8.10;1.75;;;;;;;15.32;100.00;99621.25;4990108;28;20466;-75
2023/09/19 03:53:36;;;;;;;4.68;1.85;;;;;;;15.49;100.00;99654.59;4988613;28;20076;-75
2023/09/19 03:56:02;;;;;;;5.47;1.70;;;;;;;15.40;100.00;99650.53;4992516;28;20026;-76
2023/09/19 03:58:30;;;;;;;8.60;3.05;;;;;;;15.33;100.00;99612.13;4992149;28;20273;-75
2023/09/19 04:00:56;;;;;;;9.90;2.33;;;;;;;15.29;100.00;99590.25;4992305;28;20398;-76
2023/09/19 04:03:22;;;;;;;8.55;2.15;;;;;;;15.20;100.00;99578.97;4994543;28;20034;-75
2023/09/19 04:05:48;;;;;;;12.93;2.88;;;;;;;15.18;100.00;99599.84;4992342;28;20037;-75
2023/09/19 04:08:14;;;;;;;8.60;1.60;;;;;;;15.19;100.00;99585.41;4993047;28;20029;-76
2023/09/19 04:10:43;;;;;;;;;;;;;;;15.20;100.00;99584.34;4994240;28;20106;-76
2023/09/19 04:13:09;;;;;;;5.90;1.65;;;;;;;15.05;100.00;99572.28;4989053;28;19914;-75
2023/09/19 04:15:37;;;;;;;10.67;1.63;;;;;;;15.05;100.00;99583.84;4983760;28;20021;-75
2023/09/19 04:18:03;;;;;;;5.82;1.77;;;;;;;15.07;100.00;99562.94;4991574;28;20042;-75
2023/09/19 04:20:28;;;;;;;6.22;1.80;;;;;;;14.98;100.00;99561.56;4994686;28;20021;-75
2023/09/19 04:22:54;;;;;;;6.20;1.75;;;;;;;14.86;100.00;99568.72;4989213;28;20089;-75
2023/09/19 04:25:20;;;;;;;9.15;1.92;;;;;;;14.80;100.00;99562.38;4991492;28;20453;-75
2023/09/19 04:27:46;;;;;;;11.70;2.05;;;;;;;14.90;100.00;99546.56;4983924;28;20045;-75
2023/09/19 04:30:12;;;;;;;7.32;2.15;;;;;;;14.99;100.00;99533.66;4991995;28;20026;-75
2023/09/19 04:32:41;;;;;;;7.38;2.83;;;;;;;14.82;100.00;99521.81;4994541;28;20156;-75
2023/09/19 04:35:08;;;;;;;9.23;2.95;;;;;;;14.84;100.00;99522.44;4993322;28;20030;-75
2023/09/19 04:37:39;;;;;;;8.43;1.67;;;;;;;14.76;100.00;99505.53;4989115;28;20018;-75
2023/09/19 04:40:12;;;;;;;12.02;2.17;;;;;;;14.76;100.00;99477.84;4992864;28;20037;-75
2023/09/19 04:42:42;;;;;;;7.47;1.75;;;;;;;14.75;100.00;99468.16;4978777;28;20030;-75
2023/09/19 04:45:11;;;;;;;7.55;1.98;;;;;;;14.74;100.00;99478.06;4985504;28;20462;-75
2023/09/19 04:47:38;;;;;;;11.30;3.35;;;;;;;14.62;100.00;99501.31;4993908;28;20022;-75
2023/09/19 04:50:12;;;;;;;9.38;2.10;;;;;;;14.61;100.00;99523.88;4985283;28;20034;-75
2023/09/19 04:52:42;;;;;;;10.02;2.05;;;;;;;14.63;100.00;99548.63;4986198;28;20041;-74
2023/09/19 04:55:16;;;;;;;7.63;1.90;;;;;;;14.66;100.00;99552.75;4983835;28;20037;-74
2023/09/19 04:57:42;;;;;;;15.45;2.95;;;;;;;14.55;100.00;99543.53;4987420;28;20528;-75
2023/09/19 05:00:12;;;;;;;15.50;3.63;;;;;;;14.61;100.00;99560.63;4985463;28;20229;-75
2023/09/19 05:02:38;;;;;;;9.35;2.75;;;;;;;14.50;100.00;99575.56;4992584;28;20556;-75
2023/09/19 05:05:04;;;;;;;15.70;2.28;;;;;;;14.54;100.00;99609.03;4985663;28;20031;-74
2023/09/19 05:07:30;;;;;;;10.95;2.60;;;;;;;14.60;100.00;99605.47;4994331;28;20042;-74
2023/09/19 05:09:55;;;;;;;8.53;2.13;;;;;;;14.59;100.00;99603.84;4986048;28;20053;-74
2023/09/19 05:12:21;;;;;;;14.17;2.43;;;;;;;14.44;100.00;99595.22;4993631;28;20038;-76
2023/09/19 05:14:46;;;;;;;7.43;3.43;;;;;;;14.40;100.00;99577.88;4992342;28;20030;-74
2023/09/19 05:17:13;;;;;;;8.27;2.43;;;;;;;14.50;100.00;99592.50;4986099;28;20040;-74
2023/09/19 05:19:38;;;;;;;8.70;2.40;;;;;;;14.36;100.00;99562.22;4983147;28;20026;-74
2023/09/19 05:22:04;;;;;;;9.27;3.70;;;;;;;14.41;100.00;99575.00;4989984;28;20116;-75
2023/09/19 05:24:30;;;;;;;8.30;2.47;;;;;;;14.35;100.00;99540.94;4982016;28;20041;-75
2023/09/19 05:26:56;;;;;;;10.40;1.83;;;;;;;14.41;100.00;99539.25;4991158;28;20433;-75
2023/09/19 05:29:22;;;;;;;6.30;1.58;;;;;;;14.50;100.00;99527.22;4993349;28;20474;-74
2023/09/19 05:31:47;;;;;;;7.23;1.80;;;;;;;14.51;100.00;99526.16;4995515;28;20128;-74
2023/09/19 05:34:13;;;;;;;10.80;2.33;;;;;;;14.52;100.00;99492.91;4991058;28;20272;-75
2023/09/19 05:36:39;;;;;;;9.18;2.85;;;;;;;14.57;100.00;99472.44;4981810;28;20033;-75
2023/09/19 05:39:06;;;;;;;14.45;2.83;;;;;;;14.60;100.00;99484.59;4973725;28;20038;-75
2023/09/19 05:41:31;;;;;;;10.48;2.25;;;;;;;14.53;100.00;99424.72;5024765;23;20040;-85
2023/09/19 05:43:59;;;;;;;9.57;2.23;;;;;;;14.63;100.00;99400.06;5009502;28;20037;-87
2023/09/19 05:46:29;;;;;;;5.20;2.13;;;;;;;14.65;100.00;99368.44;5023312;28;20052;-89
2023/09/19 05:48:56;;;;;;;7.07;1.92;;;;;;;14.73;100.00;99358.25;5024265;28;20033;-88
2023/09/19 05:51:22;;;;;;;10.35;2.85;;;;;;;14.77;100.00;99343.31;5031126;28;20021;-87
2023/09/19 05:53:48;;;;;;;11.60;2.25;;;;;;;14.59;100.00;99307.59;5031724;28;20021;-87
2023/09/19 05:56:14;;;;;;;10.95;2.83;;;;;;;14.64;100.00;99345.31;5029813;28;20044;-88
2023/09/19 05:58:42;;;;;;;9.57;2.45;;;;;;;14.58;100.00;99336.28;5030657;28;20487;-87
2023/09/19 06:01:09;;;;;;;6.82;2.28;;;;;;;14.89;100.00;99327.28;5029046;28;20079;-84
2023/09/19 06:03:35;;;;;;;10.45;1.73;;;;;;;15.33;100.00;99271.44;5010473;28;20037;-86
2023/09/19 06:06:06;;;;;;;15.23;4.93;;;;;;;15.43;100.00;99157.97;5011693;28;20091;-86
2023/09/19 06:08:32;;;;;;;12.75;1.80;;;;;;;15.79;100.00;99142.66;5020850;28;20038;-88
2023/09/19 06:10:57;;;;;;;10.38;3.00;;;;;;;15.71;100.00;99054.22;5014333;28;20089;-88
2023/09/19 06:13:23;;;;;;;13.50;2.83;;;;;;;16.15;100.00;99022.25;5006654;28;20065;-87
2023/09/19 06:15:49;;;;;;;;;;;;;;;16.20;100.00;98926.28;4998517;28;20062;-88
2023/09/19 06:18:19;;;;;;;;;;;;;;;16.50;100.00;98873.94;5023437;28;19920;-88
2023/09/19 06:20:46;;;;;;;4.85;1.85;;;;;;;16.97;100.00;98868.16;5025588;28;19916;-87
2023/09/19 06:23:11;;;;;;;8.60;2.17;;;;;;;16.73;100.00;98889.09;4999005;28;20037;-86
2023/09/19 06:25:36;;;;;;;20.33;2.67;;;;;;;16.24;100.00;98730.03;5010222;28;20133;-87
2023/09/19 06:28:05;;;;;;;10.90;2.50;;;;;;;16.10;100.00;98783.41;5014256;28;20033;-87
2023/09/19 06:30:30;;;;;;;7.60;1.60;;;;;;;16.30;100.00;98826.00;5010827;28;20034;-87
2023/09/19 06:32:57;;;;;;;8.80;1.80;;;;;;;16.46;100.00;98889.78;5024871;28;20026;-86
2023/09/19 06:35:22;;;;;;;10.23;2.00;;;;;;;16.18;100.00;98795.66;5017656;28;20184;-86
2023/09/19 06:37:48;;;;;;;11.68;2.40;;;;;;;16.01;100.00;98826.09;5003815;28;20053;-86
2023/09/19 06:40:14;;;;;;;7.33;1.97;;;;;;;15.83;100.00;98960.88;5029581;28;20030;-89
2023/09/19 06:42:45;;;;;;;;;;;;;;;15.99;100.00;99032.75;5013329;28;20049;-86
2023/09/19 06:45:13;;;;;;;5.35;1.73;;;;;;;16.03;100.00;98896.63;5011228;28;19932;-87
2023/09/19 06:47:42;;;;;;;9.38;2.30;;;;;;;15.75;100.00;98884.03;5021896;28;20413;-87
2023/09/19 06:50:12;;;;;;;10.52;2.00;;;;;;;15.62;100.00;99000.78;5024789;28;20025;-87
2023/09/19 06:52:38;;;;;;;12.35;3.10;;;;;;;15.38;100.00;98964.22;5013432;28;20033;-86
2023/09/19 06:55:05;;;;;;;7.80;2.13;;;;;;;15.08;100.00;99002.84;5005604;28;20087;-87
2023/09/19 06:57:31;;;;;;;15.45;2.38;;;;;;;15.25;100.00;99137.38;5022084;28;20052;-86
2023/09/19 06:59:56;;;;;;;7.33;1.60;;;;;;;15.12;100.00;99138.38;5006114;28;20033;-86
2023/09/19 07:02:21;;;;;;;8.30;2.30;;;;;;;15.13;100.00;99158.03;5023325;28;20037;-87
2023/09/19 07:04:47;;;;;;;9.73;2.33;;;;;;;14.91;100.00;99145.16;5007435;28;20030;-88
2023/09/19 07:07:13;;;;;;;15.53;2.23;;;;;;;14.99;100.00;99240.72;5015097;28;20045;-88
2023/09/19 07:09:39;;;;;;;;;;;;;;;14.98;100.00;99213.06;5004002;28;20340;-86
2023/09/19 07:12:05;;;;;;;9.15;2.17;;;;;;;15.09;100.00;99273.25;5009133;28;19917;-89
2023/09/19 07:14:30;;;;;;;5.75;1.67;;;;;;;15.28;100.00;99273.19;5013606;28;20025;-88
2023/09/19 07:16:56;;;;;;;10.57;2.87;;;;;;;15.35;100.00;99237.09;5015878;28;20033;-87
2023/09/19 07:19:21;;;;;;;11.30;2.43;;;;;;;15.44;100.00;99215.25;5032555;28;20099;-86
2023/09/19 07:21:47;;;;;;;8.00;1.80;;;;;;;15.38;100.00;99169.44;5013560;28;20891;-86
2023/09/19 07:24:13;;;;;;;8.07;1.50;;;;;;;15.78;100.00;99227.97;5009918;28;20048;-86
2023/09/19 07:26:39;;;;;;;5.97;1.98;;;;;;;15.87;100.00;99209.56;5000878;28;20037;-86
2023/09/19 07:29:06;;;;;;;14.45;2.33;;;;;;;15.79;100.00;99158.81;5016339;28;20116;-85
2023/09/19 07:31:32;;;;;;;10.15;2.88;;;;;;;15.72;100.00;99105.13;5007796;28;20033;-85
2023/09/19 07:33:57;;;;;;;11.57;2.40;;;;;;;15.86;100.00;99127.22;5007729;28;20037;-86
2023/09/19 07:36:24;;;;;;;9.30;2.27;;;;;;;15.45;100.00;99067.09;5013834;28;20046;-86
2023/09/19 07:38:49;;;;;;;;;;;;;;;15.57;100.00;99124.41;5016317;28;20017;-87
2023/09/19 07:41:15;;;;;;;9.93;3.08;;;;;;;15.61;100.00;99160.53;4998734;28;19929;-86
2023/09/19 07:43:40;;;;;;;9.68;1.95;;;;;;;15.59;100.00;99213.75;5010795;28;20036;-87
2023/09/19 07:46:10;;;;;;;6.30;2.00;;;;;;;15.64;100.00;99266.88;5029517;28;20038;-84
2023/09/19 07:48:36;;;;;;;15.15;2.42;;;;;;;15.47;100.00;99185.19;5028002;28;20450;-85
2023/09/19 07:51:06;;;;;;;8.48;1.92;;;;;;;15.37;100.00;99140.88;5020902;28;20021;-86
2023/09/19 07:53:34;;;;;;;11.50;1.90;;;;;;;15.35;100.00;99089.19;5023436;28;20041;-84
2023/09/19 07:56:06;;;;;;;9.18;1.95;;;;;;;15.52;100.00;99179.94;5006831;28;20072;-85
2023/09/19 07:58:33;;;;;;;6.00;1.77;;;;;;;15.66;100.00;99159.81;5022982;28;20053;-87
2023/09/19 08:01:13;;;;;;;14.73;2.42;;;;;;;15.61;100.00;99119.38;5005194;28;20017;-85
2023/09/19 08:03:43;;;;;;;9.05;2.22;;;;;;;15.80;100.00;99107.47;5023535;28;20281;-86
2023/09/19 08:06:10;;;;;;;7.63;2.20;;;;;;;15.66;100.00;99005.66;5025712;28;20104;-86
2023/09/19 08:08:37;;;;;;;;;;;;;;;15.83;100.00;99098.09;5004282;28;20030;-87
2023/09/19 08:11:11;;;;;;;11.18;2.35;;;;;;;16.07;100.00;99119.56;5012955;28;19913;-86
2023/09/19 08:13:37;;;;;;;6.93;1.88;;;;;;;15.93;100.00;98971.81;5024170;28;20080;-87
2023/09/19 08:16:03;;;;;;;;;;;;;;;16.22;100.00;99022.94;5019958;28;20100;-87
2023/09/19 08:18:30;;;;;;;11.80;2.03;;;;;;;16.38;100.00;99014.06;5012387;28;19919;-87
2023/09/19 08:20:58;;;;;;;7.28;2.33;;;;;;;15.99;100.00;98906.25;5003415;28;20041;-87
2023/09/19 08:23:23;;;;;;;7.45;2.45;;;;;;;15.87;100.00;98918.94;5028221;28;20032;-88
2023/09/19 08:25:49;;;;;;;8.70;1.63;;;;;;;15.78;100.00;98979.56;5008733;28;20033;-86
2023/09/19 08:28:18;;;;;;;8.83;2.00;;;;;;;15.90;100.00;99026.13;5005758;28;20037;-86
2023/09/19 08:30:46;;;;;;;8.98;2.17;;;;;;;15.92;100.00;99044.69;5022688;28;20021;-87
2023/09/19 08:33:12;;;;;;;11.60;3.38;;;;;;;16.06;100.00;99077.53;5011026;28;20052;-88
2023/09/19 08:35:39;;;;;;;6.63;2.03;;;;;;;15.80;100.00;99055.50;5013955;28;20044;-87
2023/09/19 08:38:05;;;;;;;13.68;2.97;;;;;;;15.63;100.00;99075.03;5011035;28;20068;-87
2023/09/19 08:40:33;;;;;;;;;;;;;;;15.64;100.00;99186.16;5014781;28;20503;-87
2023/09/19 08:43:00;;;;;;;8.98;2.17;;;;;;;15.45;100.00;99201.56;5030940;28;20370;-86
2023/09/19 08:45:29;;;;;;;9.60;1.75;;;;;;;15.68;100.00;99245.69;5003212;28;20033;-86
2023/09/19 08:48:16;;;;;;;9.38;2.28;;;;;;;15.80;100.00;99297.66;5002471;28;20026;-85
2023/09/19 08:51:14;;;;;;;8.82;2.22;;;;;;;15.62;100.00;99234.00;5006590;28;20097;-87
2023/09/19 08:54:06;;;;;;;8.35;1.98;;;;;;;15.70;100.00;99313.53;5011838;28;20092;-86
2023/09/19 08:56:33;;;;;;;8.57;2.63;;;;;;;15.78;100.00;99358.97;5020042;28;20030;-86
2023/09/19 08:59:07;;;;;;;8.68;2.00;;;;;;;15.59;100.00;99336.66;5018848;28;20483;-86
2023/09/19 09:01:33;;;;;;;9.63;2.47;;;;;;;15.75;100.00;99314.50;5029959;28;20038;-87
2023/09/19 09:03:59;;;;;;;7.85;2.13;;;;;;;16.19;100.00;99319.59;5031937;28;20120;-86
2023/09/19 09:06:25;;;;;;;5.82;2.97;;;;;;;15.94;100.00;99166.38;5013222;28;20049;-87
2023/09/19 09:08:52;;;;;;;10.90;2.63;;;;;;;16.10;100.00;99264.47;5021793;28;20584;-86
2023/09/19 09:11:17;;;;;;;;;;;;;;;15.77;100.00;99142.09;5030156;28;20034;-87
2023/09/19 09:13:47;;;;;;;12.30;2.13;;;;;;;15.88;100.00;99230.06;5013975;28;20363;-86
2023/09/19 09:16:18;;;;;;;7.72;1.90;;;;;;;15.88;100.00;99197.78;5013391;28;20040;-87
2023/09/19 09:18:52;;;;;;;8.75;3.10;;;;;;;15.58;100.00;99189.78;5016316;28;20037;-86
2023/09/19 09:21:18;;;;;;;7.50;2.38;;;;;;;15.69;100.00;99209.69;5030863;28;20128;-87
2023/09/19 09:23:43;;;;;;;15.40;3.30;;;;;;;15.69;100.00;99207.00;5013116;28;20104;-87
2023/09/19 09:26:09;;;;;;;16.37;2.87;;;;;;;15.65;100.00;99146.63;5031084;28;20033;-87
2023/09/19 09:28:36;;;;;;;13.07;1.85;;;;;;;15.67;100.00;99071.88;5004599;28;20124;-87
2023/09/19 09:31:08;;;;;;;18.80;3.85;;;;;;;15.83;100.00;99176.13;5006224;28;20501;-86
2023/09/19 09:33:35;;;;;;;9.55;2.10;;;;;;;16.03;100.00;99155.03;5006746;28;20044;-86
2023/09/19 09:36:03;;;;;;;10.38;2.40;;;;;;;16.18;100.00;99151.84;5029535;28;20124;-88
2023/09/19 09:38:32;;;;;;;10.18;2.25;;;;;;;16.39;100.00;99228.50;5013145;28;20044;-86
2023/09/19 09:43:27;;;;;;;6.82;1.60;;;;;;;16.59;100.00;99031.41;5029465;28;20026;-86
2023/09/19 09:49:14;;;;;;;10.88;2.08;;;;;;;17.08;100.00;99127.94;5025256;28;20044;-87
2023/09/19 09:51:59;;;;;;;10.95;2.53;;;;;;;17.01;100.00;99036.44;5024612;28;20034;-87
2023/09/19 09:54:38;;;;;;;10.15;1.95;;;;;;;17.12;100.00;99013.16;5023167;28;20041;-87
2023/09/19 09:57:16;;;;;;;9.30;2.22;;;;;;;17.23;100.00;99028.41;5005696;28;20558;-85
2023/09/19 09:59:49;;;;;;;12.00;3.30;;;;;;;17.22;100.00;98856.88;5021022;28;20123;-86
2023/09/19 10:02:24;;;;;;;12.30;2.33;;;;;;;17.35;100.00;99067.94;5012503;28;20487;-86
2023/09/19 10:07:40;;;;;;;10.38;2.47;;;;;;;17.10;100.00;98724.09;5029092;28;20038;-87
2023/09/19 10:10:21;;;;;;;8.00;2.28;;;;;;;17.41;100.00;98799.91;5005218;28;20065;-88
2023/09/19 10:12:50;;;;;;;9.93;2.35;;;;;;;17.47;100.00;98802.41;5004901;28;20060;-86
2023/09/19 10:15:20;;;;;;;8.48;2.58;;;;;;;17.06;100.00;98698.69;5004315;28;20052;-87
2023/09/19 10:17:46;;;;;;;6.72;2.17;;;;;;;17.35;100.00;98749.66;4997373;28;20087;-87
2023/09/19 10:22:58;;;;;;;13.40;2.38;;;;;;;17.11;100.00;98666.38;5027603;28;20029;-88
2023/09/19 10:25:29;;;;;;;15.63;2.97;;;;;;;17.25;100.00;98680.25;5016934;28;20083;-86
2023/09/19 10:27:55;;;;;;;7.85;2.47;;;;;;;17.47;100.00;98672.91;5022292;28;20025;-87
2023/09/19 10:30:22;;;;;;;12.90;2.60;;;;;;;17.05;100.00;98478.72;5020147;28;20492;-88
2023/09/19 10:32:57;;;;;;;9.82;2.47;;;;;;;17.19;100.00;98517.63;5013348;28;20060;-87
2023/09/19 10:35:23;;;;;;;8.38;2.70;;;;;;;17.35;100.00;98528.50;5029367;28;20034;-86
2023/09/19 10:37:50;;;;;;;;;;;;;;;18.06;100.00;98566.66;4998787;28;20076;-87
2023/09/19 10:40:17;;;;;;;8.68;2.00;;;;;;;17.74;100.00;98383.25;5008833;28;19913;-87
2023/09/19 10:42:45;;;;;;;9.73;2.97;;;;;;;17.45;100.00;98382.94;5008819;28;20440;-88
2023/09/19 10:45:14;;;;;;;6.68;2.30;;;;;;;17.45;100.00;98464.66;5025137;28;20987;-87
2023/09/19 10:47:40;;;;;;;10.70;1.92;;;;;;;17.44;100.00;98452.25;5021034;28;20030;-87
2023/09/19 10:50:12;;;;;;;13.27;2.83;;;;;;;17.55;100.00;98365.97;5016691;28;20537;-86
2023/09/19 10:52:42;;;;;;;13.27;2.80;;;;;;;17.51;100.00;98296.38;5008761;28;20037;-85
2023/09/19 10:55:10;;;;;;;7.63;2.40;;;;;;;17.37;100.00;98316.00;5033289;28;20026;-86
2023/09/19 10:57:36;;;;;;;9.73;2.22;;;;;;;17.97;100.00;98471.06;5023507;28;20132;-87
2023/09/19 11:00:23;;;;;;;7.93;1.73;;;;;;;17.32;100.00;98194.66;5026206;28;20030;-87
2023/09/19 11:03:17;;;;;;;16.75;2.47;;;;;;;18.22;100.00;98561.34;5024900;28;20030;-85
2023/09/19 11:05:42;;;;;;;7.50;1.92;;;;;;;18.19;100.00;98389.84;4999721;28;20041;-87
2023/09/19 11:08:09;;;;;;;9.38;2.05;;;;;;;17.90;100.00;98235.69;5032261;28;20029;-87
2023/09/19 11:10:48;;;;;;;9.85;1.90;;;;;;;18.05;100.00;98191.66;5030426;28;20033;-87
2023/09/19 11:13:30;;;;;;;8.30;1.88;;;;;;;18.35;100.00;98117.84;5015947;28;20114;-87
2023/09/19 11:15:59;;;;;;;10.63;3.25;;;;;;;18.48;97.41;97990.28;5017184;28;20032;-88
2023/09/19 11:18:40;;;;;;;11.48;2.58;;;;;;;18.40;96.52;97957.63;5044107;28;20088;-86
2023/09/19 11:21:29;;;;;;;10.82;2.03;;;;;;;18.33;92.17;97582.56;5019786;28;20022;-87
2023/09/19 11:24:10;;;;;;;10.15;2.28;;;;;;;18.64;92.66;97804.53;5044891;28;20025;-86
2023/09/19 11:26:47;;;;;;;10.27;3.65;;;;;;;18.21;91.96;97682.88;5030707;28;20139;-88
2023/09/19 11:29:31;;;;;;;11.82;2.38;;;;;;;17.88;93.02;97755.53;5005521;28;20084;-89
2023/09/19 11:31:59;;;;;;;11.43;2.30;;;;;;;18.33;93.67;97966.88;5004582;28;20039;-87
2023/09/19 11:34:39;;;;;;;13.20;3.50;;;;;;;17.87;94.13;97905.06;5008434;28;20013;-90
2023/09/19 11:37:13;;;;;;;4.80;1.80;;;;;;;18.03;93.60;97915.78;5015991;28;20037;-88
2023/09/19 11:39:40;;;;;;;9.60;2.17;;;;;;;18.38;91.11;97800.47;5004913;28;20976;-88
2023/09/19 11:42:50;;;;;;;10.07;2.45;;;;;;;18.75;90.81;97913.31;5002076;28;20124;-87
2023/09/19 11:45:57;;;;;;;10.45;3.03;;;;;;;19.05;91.08;98017.66;5007483;28;20037;-87